createdAt,value
2017-07-21T00:01:51.552Z,20.40
2017-07-21T00:04:19.682Z,20.30
2017-07-21T00:06:47.793Z,20.30
2017-07-21T00:09:16.025Z,20.30
2017-07-21T00:11:44.144Z,20.30
2017-07-21T00:14:12.373Z,20.30
2017-07-21T00:16:40.494Z,20.20
2017-07-21T00:19:08.614Z,20.20
2017-07-21T00:21:36.773Z,20.20
2017-07-21T00:24:04.889Z,20.20
2017-07-21T00:26:33.003Z,20.10
2017-07-21T00:29:01.270Z,20.10
2017-07-21T00:31:29.388Z,20.10
2017-07-21T00:33:57.541Z,20.10
2017-07-21T00:36:25.721Z,20.00
2017-07-21T00:38:53.845Z,20.00
2017-07-21T00:41:21.986Z,20.00
2017-07-21T00:43:50.133Z,20.00
2017-07-21T00:46:19.586Z,20.00
2017-07-21T00:48:47.689Z,20.00
2017-07-21T00:51:15.828Z,20.00
2017-07-21T00:53:44.021Z,20.00
2017-07-21T00:56:12.217Z,20.00
2017-07-21T00:58:40.406Z,20.00
2017-07-21T01:01:08.560Z,19.90
2017-07-21T01:03:36.683Z,19.90
2017-07-21T01:06:04.937Z,19.90
2017-07-21T01:08:33.117Z,19.90
2017-07-21T01:11:01.313Z,19.90
2017-07-21T01:13:29.428Z,19.90
2017-07-21T01:15:57.550Z,19.90
2017-07-21T01:18:25.823Z,19.80
2017-07-21T01:20:53.925Z,19.80
2017-07-21T01:23:22.964Z,19.80
2017-07-21T01:25:51.100Z,19.80
2017-07-21T01:28:19.229Z,19.80
2017-07-21T01:30:47.391Z,19.80
2017-07-21T01:33:15.533Z,19.70
2017-07-21T01:35:43.658Z,19.60
2017-07-21T01:38:11.896Z,19.70
2017-07-21T01:40:40.058Z,19.60
2017-07-21T01:43:08.160Z,19.60
2017-07-21T01:45:36.399Z,19.60
2017-07-21T01:48:04.538Z,19.60
2017-07-21T01:50:32.694Z,19.60
2017-07-21T01:53:00.826Z,19.60
2017-07-21T01:55:28.982Z,19.60
2017-07-21T01:57:57.174Z,19.60
2017-07-21T02:00:25.409Z,19.60
2017-07-21T02:02:53.877Z,19.50
2017-07-21T02:05:22.023Z,19.60
2017-07-21T02:07:50.205Z,19.50
2017-07-21T02:10:18.375Z,19.50
2017-07-21T02:12:46.548Z,19.40
2017-07-21T02:15:14.678Z,19.40
2017-07-21T02:17:42.812Z,19.40
2017-07-21T02:20:11.061Z,19.40
2017-07-21T02:22:39.201Z,19.40
2017-07-21T02:25:07.350Z,19.40
2017-07-21T02:27:35.482Z,19.30
2017-07-21T02:30:03.621Z,19.30
2017-07-21T02:32:31.802Z,19.30
2017-07-21T02:34:59.965Z,19.20
2017-07-21T02:37:28.133Z,19.20
2017-07-21T02:39:56.377Z,19.20
2017-07-21T02:42:24.521Z,19.20
2017-07-21T02:44:52.686Z,19.20
2017-07-21T02:47:20.923Z,19.20
2017-07-21T02:49:49.097Z,19.20
2017-07-21T02:52:17.239Z,19.20
2017-07-21T02:54:45.361Z,19.30
2017-07-21T02:57:14.737Z,19.20
2017-07-21T02:59:42.879Z,19.20
2017-07-21T03:02:11.065Z,19.20
2017-07-21T03:04:39.185Z,19.20
2017-07-21T03:07:07.302Z,19.20
2017-07-21T03:09:36.373Z,19.20
2017-07-21T03:12:04.540Z,19.20
2017-07-21T03:14:32.688Z,19.20
2017-07-21T03:17:00.860Z,19.20
2017-07-21T03:19:29.038Z,19.10
2017-07-21T03:21:57.197Z,19.10
2017-07-21T03:24:25.458Z,19.10
2017-07-21T03:26:53.618Z,19.00
2017-07-21T03:29:21.741Z,19.00
2017-07-21T03:31:49.933Z,19.00
2017-07-21T03:34:18.099Z,19.10
2017-07-21T03:36:46.260Z,19.10
2017-07-21T03:39:14.395Z,19.00
2017-07-21T03:41:42.554Z,19.00
2017-07-21T03:44:10.808Z,19.00
2017-07-21T03:46:38.942Z,19.00
2017-07-21T03:49:07.886Z,19.00
2017-07-21T03:51:36.020Z,19.00
2017-07-21T03:54:04.142Z,19.00
2017-07-21T03:56:32.257Z,19.00
2017-07-21T03:59:00.383Z,19.00
2017-07-21T04:01:28.479Z,19.00
2017-07-21T04:03:57.936Z,19.00
2017-07-21T04:06:26.049Z,19.00
2017-07-21T04:08:54.185Z,19.00
2017-07-21T04:11:22.289Z,19.00
2017-07-21T04:13:50.392Z,19.00
2017-07-21T04:16:18.541Z,18.90
2017-07-21T04:18:46.781Z,19.00
2017-07-21T04:21:14.914Z,19.00
2017-07-21T04:23:43.032Z,19.00
2017-07-21T04:26:11.142Z,19.00
2017-07-21T04:28:39.278Z,19.00
2017-07-21T04:31:07.453Z,19.00
2017-07-21T04:33:35.561Z,19.00
2017-07-21T04:36:03.838Z,19.10
2017-07-21T04:38:31.930Z,19.10
2017-07-21T04:41:00.566Z,19.20
2017-07-21T04:43:31.626Z,19.20
2017-07-21T05:06:43.225Z,19.50
2017-07-21T05:09:11.602Z,19.50
2017-07-21T05:11:39.824Z,19.50
2017-07-21T05:14:08.205Z,19.50
2017-07-21T05:16:36.552Z,19.50
2017-07-21T05:19:04.731Z,19.40
2017-07-21T05:21:32.888Z,19.50
2017-07-21T05:24:00.990Z,19.50
2017-07-21T05:26:30.000Z,19.50
2017-07-21T05:28:58.117Z,19.50
2017-07-21T05:31:26.205Z,19.60
2017-07-21T05:33:54.442Z,19.60
2017-07-21T05:36:22.548Z,19.60
2017-07-21T05:38:50.641Z,19.60
2017-07-21T05:41:18.772Z,19.70
2017-07-21T05:43:46.866Z,19.70
2017-07-21T05:46:14.984Z,19.70
2017-07-21T05:48:43.109Z,19.80
2017-07-21T05:51:11.220Z,19.90
2017-07-21T05:53:39.311Z,19.90
2017-07-21T05:56:07.554Z,20.00
2017-07-21T05:58:35.686Z,20.00
2017-07-21T06:01:03.927Z,20.00
2017-07-21T06:03:32.044Z,20.00
2017-07-21T06:06:00.145Z,20.20
2017-07-21T06:08:28.296Z,20.30
2017-07-21T06:10:56.392Z,20.40
2017-07-21T06:13:24.505Z,20.40
2017-07-21T06:15:52.633Z,20.40
2017-07-21T06:18:20.726Z,20.50
2017-07-21T06:20:48.891Z,20.60
2017-07-21T06:23:16.977Z,20.70
2017-07-21T06:25:45.092Z,20.80
2017-07-21T06:28:13.184Z,20.80
2017-07-21T06:30:41.288Z,20.80
2017-07-21T06:33:09.399Z,20.90
2017-07-21T06:35:37.501Z,20.90
2017-07-21T06:38:05.736Z,20.90
2017-07-21T06:40:33.835Z,21.00
2017-07-21T06:43:01.948Z,21.10
2017-07-21T06:45:30.052Z,21.10
2017-07-21T06:47:58.181Z,21.20
2017-07-21T06:50:26.277Z,21.20
2017-07-21T06:52:55.342Z,21.30
2017-07-21T06:55:23.501Z,21.30
2017-07-21T06:57:51.612Z,21.30
2017-07-21T07:00:19.709Z,21.40
2017-07-21T07:02:47.844Z,21.50
2017-07-21T07:05:15.953Z,21.60
2017-07-21T07:07:44.060Z,21.70
2017-07-21T07:10:12.197Z,21.80
2017-07-21T07:12:40.291Z,21.80
2017-07-21T07:15:08.389Z,21.80
2017-07-21T07:17:36.637Z,21.90
2017-07-21T07:20:04.724Z,21.90
2017-07-21T07:22:32.877Z,21.90
2017-07-21T07:25:00.986Z,22.00
2017-07-21T07:27:29.088Z,21.80
2017-07-21T07:29:57.341Z,21.80
2017-07-21T07:32:25.439Z,21.80
2017-07-21T07:34:53.539Z,22.00
2017-07-21T07:37:21.671Z,22.00
2017-07-21T07:39:49.772Z,22.20
2017-07-21T07:42:17.876Z,22.30
2017-07-21T07:44:46.013Z,22.40
2017-07-21T07:47:14.104Z,22.50
2017-07-21T07:49:42.353Z,22.50
2017-07-21T07:52:10.442Z,22.50
2017-07-21T07:54:38.538Z,22.50
2017-07-21T07:57:06.669Z,22.50
2017-07-21T07:59:34.758Z,22.60
2017-07-21T08:02:02.871Z,22.70
2017-07-21T08:04:31.004Z,22.70
2017-07-21T08:06:59.233Z,22.80
2017-07-21T08:09:27.329Z,22.80
2017-07-21T08:11:55.434Z,22.80
2017-07-21T08:14:23.564Z,22.80
2017-07-21T08:16:51.652Z,22.80
2017-07-21T08:19:19.776Z,22.90
2017-07-21T08:21:47.901Z,23.00
2017-07-21T08:24:15.986Z,23.00
2017-07-21T08:26:44.081Z,23.10
2017-07-21T08:29:12.317Z,23.10
2017-07-21T08:31:40.413Z,23.10
2017-07-21T08:34:08.521Z,23.20
2017-07-21T08:36:36.619Z,23.30
2017-07-21T08:39:04.734Z,23.50
2017-07-21T08:41:32.852Z,23.50
2017-07-21T08:44:01.097Z,23.40
2017-07-21T08:46:29.329Z,23.40
2017-07-21T08:48:57.427Z,23.40
2017-07-21T08:51:25.549Z,23.40
2017-07-21T08:53:53.650Z,23.40
2017-07-21T08:56:21.744Z,23.50
2017-07-21T08:58:49.845Z,23.60
2017-07-21T09:01:18.088Z,23.70
2017-07-21T09:03:46.240Z,23.70
2017-07-21T09:06:14.383Z,23.90
2017-07-21T09:08:42.473Z,23.90
2017-07-21T09:11:10.593Z,23.90
2017-07-21T09:13:38.679Z,24.10
2017-07-21T09:16:06.804Z,24.10
2017-07-21T09:18:34.876Z,24.10
2017-07-21T09:21:03.044Z,24.20
2017-07-21T09:23:31.150Z,24.30
2017-07-21T09:25:59.252Z,24.40
2017-07-21T09:28:27.373Z,24.60
2017-07-21T09:30:55.460Z,24.70
2017-07-21T09:33:23.557Z,24.80
2017-07-21T09:35:51.673Z,24.80
2017-07-21T09:38:19.760Z,24.80
2017-07-21T09:40:47.924Z,25.00
2017-07-21T09:43:16.021Z,25.10
2017-07-21T09:45:44.136Z,25.30
2017-07-21T09:48:12.258Z,25.40
2017-07-21T09:50:40.336Z,25.60
2017-07-21T09:53:08.487Z,25.90
2017-07-21T09:55:36.671Z,26.10
2017-07-21T09:58:04.901Z,26.30
2017-07-21T10:00:33.077Z,26.50
2017-07-21T10:03:01.224Z,26.60
2017-07-21T10:05:29.413Z,26.80
2017-07-21T10:07:57.590Z,26.90
2017-07-21T10:10:26.652Z,26.90
2017-07-21T10:12:54.841Z,26.90
2017-07-21T10:15:23.010Z,26.80
2017-07-21T10:17:51.204Z,26.80
2017-07-21T10:20:19.425Z,26.80
2017-07-21T10:22:47.625Z,26.80
2017-07-21T11:14:00.312Z,27.50
2017-07-21T11:16:28.452Z,28.40
2017-07-21T11:18:56.547Z,28.20
2017-07-21T11:21:26.573Z,28.20
2017-07-21T11:23:54.714Z,28.40
2017-07-21T11:26:22.826Z,28.40
2017-07-21T11:28:51.934Z,28.50
2017-07-21T11:31:20.213Z,28.70
2017-07-21T11:33:48.314Z,29.00
2017-07-21T11:36:16.417Z,29.00
2017-07-21T11:38:44.950Z,29.10
2017-07-21T11:41:13.055Z,29.10
2017-07-21T11:43:42.086Z,29.10
2017-07-21T11:46:11.359Z,28.90
2017-07-21T11:48:39.498Z,28.90
2017-07-21T11:51:07.764Z,28.90
2017-07-21T11:53:35.873Z,28.90
2017-07-21T11:56:04.014Z,28.90
2017-07-21T11:58:33.042Z,28.80
2017-07-21T12:01:01.168Z,28.90
2017-07-21T12:03:29.305Z,28.70
2017-07-21T12:05:58.858Z,28.60
2017-07-21T12:08:27.123Z,28.60
2017-07-21T12:10:55.231Z,28.60
2017-07-21T12:13:23.337Z,28.70
2017-07-21T12:15:51.479Z,28.70
2017-07-21T12:18:21.607Z,28.90
2017-07-21T12:20:49.785Z,28.90
2017-07-21T12:23:18.688Z,29.10
2017-07-21T12:25:46.793Z,29.10
2017-07-21T12:28:15.383Z,29.10
2017-07-21T12:43:52.461Z,28.90
2017-07-21T12:46:27.364Z,29.00
2017-07-21T12:49:05.261Z,29.00
2017-07-21T13:05:24.261Z,29.80
2017-07-21T13:08:03.103Z,29.70
2017-07-21T13:10:40.686Z,29.50
2017-07-21T13:13:23.844Z,29.60
2017-07-21T13:16:02.238Z,29.50
2017-07-21T13:21:22.676Z,29.50
2017-07-21T13:34:19.670Z,29.30
2017-07-21T13:36:58.159Z,29.20
2017-07-21T13:39:40.254Z,29.10
2017-07-21T13:42:19.114Z,29.10
2017-07-21T13:44:57.486Z,29.20
2017-07-21T13:47:37.750Z,29.30
2017-07-21T13:50:17.810Z,29.40
2017-07-21T13:52:56.349Z,29.60
2017-07-21T13:55:36.336Z,29.60
2017-07-21T13:58:18.596Z,29.60
2017-07-21T14:00:58.764Z,29.60
2017-07-21T14:03:39.744Z,29.60
2017-07-21T14:06:23.877Z,29.90
2017-07-21T14:09:06.101Z,30.00
2017-07-21T14:29:29.455Z,30.70
2017-07-21T14:35:12.657Z,30.90
2017-07-21T14:43:42.483Z,31.10
2017-07-21T14:49:51.449Z,31.40
2017-07-21T15:01:59.082Z,31.20
2017-07-21T15:07:18.973Z,31.10
2017-07-21T15:09:55.526Z,31.00
2017-07-21T15:12:31.925Z,30.80
2017-07-21T15:17:59.359Z,30.90
2017-07-21T15:20:32.161Z,30.90
2017-07-21T15:23:12.547Z,30.90
2017-07-21T15:28:25.566Z,30.80
2017-07-21T15:33:41.277Z,30.70
2017-07-21T15:36:16.667Z,30.80
2017-07-21T15:38:56.718Z,30.80
2017-07-21T15:44:16.011Z,30.80
2017-07-21T15:49:51.830Z,30.70
2017-07-21T15:52:34.200Z,30.70
2017-07-21T15:55:13.401Z,30.70
2017-07-21T15:57:55.532Z,30.80
2017-07-21T16:00:38.225Z,30.80
2017-07-21T16:03:22.094Z,30.80
2017-07-21T16:05:59.399Z,30.90
2017-07-21T16:16:49.617Z,30.80
2017-07-21T16:19:28.550Z,30.70
2017-07-21T16:22:09.327Z,30.70
2017-07-21T16:24:50.203Z,30.60
2017-07-21T16:27:29.768Z,30.50
2017-07-21T16:30:14.499Z,30.30
2017-07-21T16:32:59.106Z,30.20
2017-07-21T16:38:35.401Z,30.10
2017-07-21T16:41:16.087Z,30.00
2017-07-21T16:44:10.091Z,29.90
2017-07-21T16:53:55.579Z,30.00
2017-07-21T16:56:23.950Z,30.00
2017-07-21T16:58:52.192Z,30.00
2017-07-21T17:04:03.117Z,29.80
2017-07-21T17:47:29.710Z,29.30
2017-07-21T18:46:13.990Z,28.10
2017-07-21T19:15:09.857Z,27.40
2017-07-21T19:22:46.381Z,27.20
2017-07-21T19:25:19.363Z,26.80
2017-07-21T19:27:51.918Z,26.00
2017-07-21T19:30:22.514Z,25.30
2017-07-21T19:32:54.563Z,24.50
2017-07-21T19:38:08.617Z,23.30
2017-07-21T19:40:52.740Z,23.10
2017-07-21T19:43:22.831Z,22.70
2017-07-21T19:45:52.776Z,22.40
2017-07-21T19:48:22.907Z,22.10
2017-07-21T19:50:54.518Z,21.90
2017-07-21T19:53:25.805Z,21.80
2017-07-21T19:55:56.909Z,21.80
2017-07-21T19:58:30.292Z,21.70
2017-07-21T20:18:07.463Z,21.50
2017-07-21T20:21:09.512Z,21.50
2017-07-21T21:19:05.901Z,19.00
2017-07-21T21:21:37.755Z,18.90
2017-07-21T21:24:06.998Z,18.90
2017-07-21T21:26:35.754Z,18.90
2017-07-21T21:29:08.147Z,18.90
2017-07-21T21:31:39.389Z,19.10
2017-07-21T21:36:45.960Z,19.20
2017-07-21T21:39:19.911Z,19.20
2017-07-21T21:41:52.649Z,19.10
2017-07-21T21:44:23.436Z,19.20
2017-07-21T21:46:53.791Z,19.20
2017-07-21T21:49:25.643Z,19.40
2017-07-21T21:51:57.833Z,19.40
2017-07-21T21:54:29.586Z,19.50
2017-07-21T21:57:00.151Z,19.50
2017-07-21T21:59:31.378Z,19.60
2017-07-21T22:02:01.284Z,19.60
2017-07-21T22:04:31.036Z,19.60
2017-07-21T22:06:59.252Z,19.60
2017-07-21T22:09:30.232Z,19.80
2017-07-21T22:11:58.817Z,19.80
2017-07-21T22:14:28.210Z,19.90
2017-07-21T22:16:57.154Z,19.90
2017-07-21T22:19:25.261Z,19.80
2017-07-21T22:21:53.374Z,19.80
2017-07-21T22:24:21.507Z,19.80
2017-07-21T22:26:49.629Z,19.90
2017-07-21T22:29:17.867Z,19.90
2017-07-21T22:31:45.961Z,20.00
2017-07-21T22:34:14.096Z,19.90
2017-07-21T22:36:42.246Z,19.80
2017-07-21T22:39:11.113Z,19.90
2017-07-21T22:41:39.223Z,19.80
2017-07-21T22:44:08.129Z,19.90
2017-07-21T22:46:36.247Z,19.90
2017-07-21T22:49:04.341Z,19.80
2017-07-21T22:51:33.349Z,19.80
2017-07-21T22:54:01.453Z,19.80
2017-07-21T22:56:29.552Z,19.90
2017-07-21T22:58:57.747Z,19.90
2017-07-21T23:01:26.625Z,19.90
2017-07-21T23:03:54.723Z,19.90
2017-07-21T23:06:23.635Z,19.90
2017-07-21T23:08:51.742Z,19.90
2017-07-21T23:11:19.891Z,19.90
2017-07-21T23:13:47.985Z,19.90
2017-07-21T23:16:16.088Z,20.00
2017-07-21T23:18:44.310Z,20.00
2017-07-21T23:21:12.424Z,20.00
2017-07-21T23:23:42.197Z,20.00
2017-07-21T23:26:10.341Z,20.00
2017-07-21T23:28:38.448Z,20.00
2017-07-21T23:31:06.573Z,20.10
2017-07-21T23:33:35.576Z,20.00
2017-07-21T23:36:04.478Z,20.00
2017-07-21T23:38:32.654Z,20.00
2017-07-21T23:41:00.754Z,20.10
2017-07-21T23:43:28.880Z,20.10
2017-07-21T23:45:58.116Z,20.20
2017-07-21T23:48:26.244Z,20.10
2017-07-21T23:50:55.128Z,20.20
2017-07-21T23:53:23.379Z,20.10
2017-07-21T23:55:51.488Z,20.20
2017-07-21T23:58:20.644Z,20.10
